createdAt,value
2022-08-28T00:00:30.903Z,31.50
2022-08-28T00:03:09.973Z,33.40
2022-08-28T00:05:39.954Z,32.00
2022-08-28T00:08:09.162Z,32.70
2022-08-28T00:10:40.623Z,34.10
2022-08-28T00:13:10.143Z,33.70
2022-08-28T00:15:39.960Z,32.60
2022-08-28T00:18:08.193Z,31.00
2022-08-28T00:20:36.842Z,33.60
2022-08-28T00:23:06.210Z,31.70
2022-08-28T00:25:34.542Z,34.90
2022-08-28T00:28:05.473Z,35.50
2022-08-28T00:30:41.245Z,31.80
2022-08-28T00:33:18.654Z,33.20
2022-08-28T00:35:47.424Z,35.50
2022-08-28T00:38:18.836Z,32.80
2022-08-28T00:40:49.768Z,31.30
2022-08-28T00:43:36.762Z,31.80
2022-08-28T00:46:06.585Z,31.10
2022-08-28T00:48:34.986Z,33.10
2022-08-28T00:51:22.826Z,32.60
2022-08-28T00:53:51.460Z,33.00
2022-08-28T00:56:19.668Z,31.90
2022-08-28T00:58:49.443Z,32.20
2022-08-28T01:01:17.527Z,30.60
2022-08-28T01:03:45.964Z,30.30
2022-08-28T01:06:14.987Z,31.10
2022-08-28T01:08:44.387Z,31.70
2022-08-28T01:11:20.138Z,31.50
2022-08-28T01:13:48.785Z,31.80
2022-08-28T01:16:20.328Z,32.70
2022-08-28T01:18:49.346Z,31.80
2022-08-28T01:21:25.940Z,31.50
2022-08-28T01:23:59.604Z,32.00
2022-08-28T01:26:28.385Z,33.50
2022-08-28T01:28:58.416Z,35.30
2022-08-28T01:31:28.744Z,35.70
2022-08-28T01:33:59.385Z,35.30
2022-08-28T01:36:29.212Z,32.30
2022-08-28T01:38:59.351Z,35.10
2022-08-28T01:41:29.641Z,37.80
2022-08-28T01:43:57.672Z,35.40
2022-08-28T01:46:25.666Z,36.30
2022-08-28T01:48:53.579Z,37.30
2022-08-28T01:51:25.573Z,34.80
2022-08-28T01:53:53.886Z,35.50
2022-08-28T01:56:22.612Z,35.60
2022-08-28T01:58:50.712Z,38.70
2022-08-28T02:01:20.762Z,36.00
2022-08-28T02:03:49.600Z,33.90
2022-08-28T02:06:17.998Z,37.10
2022-08-28T02:08:46.825Z,35.40
2022-08-28T02:11:15.905Z,37.00
2022-08-28T02:13:43.705Z,32.60
2022-08-28T02:16:11.707Z,36.80
2022-08-28T02:18:39.993Z,33.90
2022-08-28T02:21:08.433Z,36.60
2022-08-28T02:23:42.998Z,33.50
2022-08-28T02:26:11.811Z,36.60
2022-08-28T02:28:39.605Z,35.60
2022-08-28T02:31:09.458Z,35.00
2022-08-28T02:33:38.854Z,36.60
2022-08-28T02:36:09.331Z,40.30
2022-08-28T02:38:38.357Z,37.70
2022-08-28T02:41:06.465Z,39.60
2022-08-28T02:43:34.590Z,42.50
2022-08-28T02:46:02.986Z,41.10
2022-08-28T02:48:32.070Z,40.90
2022-08-28T02:51:01.496Z,40.00
2022-08-28T02:53:30.429Z,41.00
2022-08-28T02:55:58.730Z,39.60
2022-08-28T02:58:27.528Z,39.50
2022-08-28T03:00:55.670Z,41.80
2022-08-28T03:03:23.780Z,39.00
2022-08-28T03:05:51.955Z,39.60
2022-08-28T03:08:19.905Z,39.20
2022-08-28T03:10:55.350Z,39.30
2022-08-28T03:13:26.750Z,37.30
2022-08-28T03:15:55.740Z,39.00
2022-08-28T03:18:25.583Z,39.00
2022-08-28T03:20:55.813Z,40.40
2022-08-28T03:23:26.585Z,41.00
2022-08-28T03:25:59.240Z,44.00
2022-08-28T03:28:28.949Z,41.60
2022-08-28T03:30:57.924Z,39.00
2022-08-28T03:33:26.950Z,40.80
2022-08-28T03:35:55.814Z,40.30
2022-08-28T03:38:25.418Z,39.40
2022-08-28T03:40:53.727Z,41.50
2022-08-28T03:43:23.336Z,39.50
2022-08-28T03:45:59.063Z,40.30
2022-08-28T03:48:28.705Z,43.90
2022-08-28T03:50:56.958Z,43.20
2022-08-28T03:53:26.046Z,42.50
2022-08-28T03:55:54.550Z,39.10
2022-08-28T03:58:23.460Z,41.50
2022-08-28T04:00:52.574Z,44.70
2022-08-28T04:03:20.545Z,45.20
2022-08-28T04:05:48.763Z,42.80
2022-08-28T04:08:17.773Z,43.00
2022-08-28T04:10:46.691Z,45.80
2022-08-28T04:13:15.563Z,42.50
2022-08-28T04:15:43.410Z,44.20
2022-08-28T04:18:11.903Z,43.40
2022-08-28T04:20:39.742Z,40.40
2022-08-28T04:23:10.186Z,41.40
2022-08-28T04:25:40.211Z,37.80
2022-08-28T04:28:08.549Z,37.80
2022-08-28T04:30:36.590Z,36.10
2022-08-28T04:33:06.205Z,39.10
2022-08-28T04:35:34.899Z,36.70
2022-08-28T04:38:05.611Z,45.30
2022-08-28T04:40:33.703Z,38.00
2022-08-28T04:43:01.602Z,40.50
2022-08-28T04:45:29.669Z,36.90
2022-08-28T04:47:58.273Z,37.40
2022-08-28T04:50:28.481Z,36.40
2022-08-28T04:52:56.841Z,37.50
2022-08-28T04:55:48.521Z,37.40
2022-08-28T04:58:13.393Z,35.70
2022-08-28T05:00:42.830Z,37.00
2022-08-28T05:03:12.221Z,37.60
2022-08-28T05:05:44.722Z,37.70
2022-08-28T05:08:13.324Z,39.60
2022-08-28T05:10:41.752Z,39.90
2022-08-28T05:13:11.027Z,38.00
2022-08-28T05:15:39.605Z,44.30
2022-08-28T05:18:07.696Z,42.10
2022-08-28T05:20:37.411Z,38.70
2022-08-28T05:23:06.201Z,39.20
2022-08-28T05:25:35.752Z,37.60
2022-08-28T05:28:03.871Z,40.70
2022-08-28T05:30:32.240Z,39.10
2022-08-28T05:33:00.577Z,41.10
2022-08-28T05:35:28.354Z,38.30
2022-08-28T05:37:56.351Z,37.30
2022-08-28T05:40:24.600Z,37.20
2022-08-28T05:42:52.809Z,38.50
2022-08-28T05:45:22.597Z,35.50
2022-08-28T05:47:52.167Z,40.10
2022-08-28T05:50:22.865Z,34.90
2022-08-28T05:52:50.920Z,36.30
2022-08-28T05:55:19.003Z,34.20
2022-08-28T05:57:46.959Z,33.70
2022-08-28T06:00:18.719Z,33.30
2022-08-28T06:02:46.616Z,34.00
2022-08-28T06:05:14.976Z,35.70
2022-08-28T06:07:43.301Z,33.90
2022-08-28T06:10:11.205Z,36.10
2022-08-28T06:12:39.172Z,33.00
2022-08-28T06:15:09.082Z,34.80
2022-08-28T06:17:38.082Z,32.70
2022-08-28T06:20:06.385Z,36.00
2022-08-28T06:22:34.634Z,37.20
2022-08-28T06:25:06.375Z,36.20
2022-08-28T06:27:39.792Z,36.70
2022-08-28T06:30:09.271Z,36.80
2022-08-28T06:32:37.874Z,36.80
2022-08-28T06:35:06.879Z,34.70
2022-08-28T06:37:34.807Z,35.30
2022-08-28T06:40:03.228Z,36.30
2022-08-28T06:42:33.049Z,35.20
2022-08-28T06:45:02.277Z,38.30
2022-08-28T06:47:30.194Z,39.00
2022-08-28T06:49:58.529Z,39.10
2022-08-28T06:52:26.543Z,41.10
2022-08-28T06:54:55.952Z,42.40
2022-08-28T06:57:26.441Z,38.50
2022-08-28T06:59:57.902Z,40.40
2022-08-28T07:02:28.377Z,40.90
2022-08-28T07:04:56.737Z,39.90
2022-08-28T07:07:31.471Z,44.50
2022-08-28T07:10:00.754Z,47.90
2022-08-28T07:12:29.351Z,44.70
2022-08-28T07:14:57.616Z,43.60
2022-08-28T07:17:26.073Z,41.90
2022-08-28T07:19:54.199Z,42.60
2022-08-28T07:22:23.057Z,42.70
2022-08-28T07:24:51.087Z,41.50
2022-08-28T07:27:19.281Z,42.00
2022-08-28T07:29:46.984Z,39.10
2022-08-28T07:32:16.166Z,41.30
2022-08-28T07:34:44.174Z,41.80
2022-08-28T07:37:15.338Z,36.00
2022-08-28T07:39:44.077Z,43.10
2022-08-28T07:42:35.465Z,36.10
2022-08-28T07:45:04.390Z,37.40
2022-08-28T07:47:32.460Z,37.60
2022-08-28T07:50:02.073Z,36.00
2022-08-28T07:52:30.536Z,35.10
2022-08-28T07:54:58.629Z,36.30
2022-08-28T07:57:27.286Z,36.40
2022-08-28T07:59:55.584Z,36.10
2022-08-28T08:02:24.050Z,34.90
2022-08-28T08:04:52.004Z,35.60
2022-08-28T08:07:20.904Z,35.40
2022-08-28T08:09:48.976Z,34.00
2022-08-28T08:12:18.068Z,30.30
2022-08-28T08:14:45.843Z,31.10
2022-08-28T08:17:14.177Z,30.50
2022-08-28T08:19:42.678Z,31.50
2022-08-28T08:22:12.280Z,27.60
2022-08-28T08:24:42.321Z,30.20
2022-08-28T08:27:10.899Z,28.40
2022-08-28T08:29:42.054Z,29.80
2022-08-28T08:32:11.398Z,26.30
2022-08-28T08:34:41.746Z,28.00
2022-08-28T08:37:10.976Z,29.80
2022-08-28T08:39:40.381Z,27.40
2022-08-28T08:42:17.661Z,27.20
2022-08-28T08:47:19.968Z,26.70
2022-08-28T08:49:57.846Z,26.00
2022-08-28T08:52:45.488Z,26.60
2022-08-28T08:55:19.318Z,27.10
2022-08-28T08:57:51.347Z,27.10
2022-08-28T09:00:21.154Z,25.10
2022-08-28T09:03:28.077Z,25.90
2022-08-28T09:06:00.350Z,25.30
2022-08-28T09:08:28.590Z,22.50
2022-08-28T09:11:22.553Z,21.40
2022-08-28T09:14:14.868Z,22.70
2022-08-28T09:16:45.678Z,20.40
2022-08-28T09:19:16.885Z,21.50
2022-08-28T09:21:45.353Z,20.40
2022-08-28T09:24:21.633Z,18.90
2022-08-28T09:26:57.672Z,18.10
2022-08-28T09:29:28.109Z,18.80
2022-08-28T09:31:56.424Z,18.30
2022-08-28T09:34:35.495Z,17.10
2022-08-28T09:37:08.476Z,19.90
2022-08-28T09:39:36.271Z,16.60
2022-08-28T09:42:26.189Z,16.50
2022-08-28T09:45:13.886Z,17.70
2022-08-28T09:47:46.807Z,16.50
2022-08-28T09:50:21.809Z,16.70
2022-08-28T09:52:51.354Z,16.30
2022-08-28T09:55:25.218Z,17.00
2022-08-28T09:57:54.565Z,15.60
2022-08-28T10:00:23.205Z,15.70
2022-08-28T10:02:55.781Z,12.00
2022-08-28T10:05:44.460Z,12.30
2022-08-28T10:08:35.714Z,9.80
2022-08-28T10:11:12.190Z,11.40
2022-08-28T10:13:46.282Z,9.40
2022-08-28T10:16:14.958Z,9.70
2022-08-28T10:18:48.465Z,10.70
2022-08-28T10:21:35.016Z,8.70
2022-08-28T10:26:34.503Z,9.20
2022-08-28T10:29:16.024Z,7.80
2022-08-28T10:32:05.480Z,8.70
2022-08-28T10:34:55.692Z,8.70
2022-08-28T10:37:41.996Z,8.10
2022-08-28T10:40:18.178Z,7.40
2022-08-28T10:42:51.239Z,8.10
2022-08-28T10:45:21.762Z,8.60
2022-08-28T10:47:53.198Z,11.00
2022-08-28T10:50:26.716Z,7.90
2022-08-28T10:53:05.952Z,8.10
2022-08-28T10:55:36.714Z,7.80
2022-08-28T10:58:24.364Z,8.30
2022-08-28T11:01:02.244Z,6.90
2022-08-28T11:03:34.768Z,7.80
2022-08-28T11:06:11.607Z,6.80
2022-08-28T11:08:40.045Z,8.60
2022-08-28T11:11:15.355Z,7.50
2022-08-28T11:14:10.905Z,7.60
2022-08-28T11:16:43.577Z,6.90
2022-08-28T11:19:18.626Z,7.50
2022-08-28T11:21:54.373Z,7.20
2022-08-28T11:24:44.214Z,8.80
2022-08-28T11:27:33.571Z,8.10
2022-08-28T11:30:11.081Z,7.50
2022-08-28T11:32:55.047Z,7.50
2022-08-28T11:35:25.965Z,7.90
2022-08-28T11:37:55.326Z,7.10
2022-08-28T11:40:32.759Z,6.10
2022-08-28T11:43:16.726Z,6.60
2022-08-28T11:45:48.258Z,6.90
2022-08-28T11:48:25.496Z,6.30
2022-08-28T11:51:04.191Z,5.80
2022-08-28T11:53:55.098Z,7.10
2022-08-28T11:56:42.833Z,6.40
2022-08-28T11:59:33.931Z,6.40
2022-08-28T12:02:23.839Z,6.30
2022-08-28T12:04:52.514Z,6.70
2022-08-28T12:07:22.303Z,7.00
2022-08-28T12:09:53.980Z,6.00
2022-08-28T12:12:22.975Z,6.30
2022-08-28T12:15:20.826Z,6.30
2022-08-28T12:17:49.652Z,5.80
2022-08-28T12:20:29.807Z,7.00
2022-08-28T12:23:00.922Z,6.70
2022-08-28T12:25:43.412Z,6.90
2022-08-28T12:28:19.185Z,7.20
2022-08-28T12:31:00.279Z,6.40
2022-08-28T12:33:32.846Z,7.70
2022-08-28T12:36:02.772Z,8.70
2022-08-28T12:38:32.192Z,7.50
2022-08-28T12:41:01.991Z,7.30
2022-08-28T12:43:32.480Z,7.40
2022-08-28T12:46:07.030Z,5.90
2022-08-28T12:48:54.557Z,7.50
2022-08-28T12:51:27.561Z,8.00
2022-08-28T12:53:57.653Z,6.50
2022-08-28T12:56:26.951Z,6.00
2022-08-28T12:58:54.919Z,6.40
2022-08-28T13:01:28.952Z,4.40
2022-08-28T13:04:07.600Z,6.00
2022-08-28T13:06:39.102Z,6.40
2022-08-28T13:09:14.157Z,6.10
2022-08-28T13:11:46.543Z,9.80
2022-08-28T13:14:16.825Z,12.40
2022-08-28T13:16:46.906Z,7.60
2022-08-28T13:19:28.949Z,7.20
2022-08-28T13:22:02.269Z,8.00
2022-08-28T13:24:44.875Z,7.60
2022-08-28T13:27:18.922Z,8.60
2022-08-28T13:29:57.129Z,7.70
2022-08-28T13:32:29.983Z,7.70
2022-08-28T13:35:03.734Z,8.80
2022-08-28T13:37:48.344Z,9.30
2022-08-28T13:40:53.313Z,9.00
2022-08-28T13:43:10.167Z,9.60
2022-08-28T13:45:43.608Z,9.20
2022-08-28T13:48:16.158Z,9.60
2022-08-28T13:50:47.280Z,8.90
2022-08-28T13:53:18.264Z,8.40
2022-08-28T13:55:48.001Z,10.10
2022-08-28T13:58:16.430Z,10.20
2022-08-28T14:00:46.081Z,8.40
2022-08-28T14:03:33.141Z,7.90
2022-08-28T14:06:03.225Z,8.60
2022-08-28T14:08:31.340Z,9.70
2022-08-28T14:10:59.615Z,9.50
2022-08-28T14:13:28.308Z,9.80
2022-08-28T14:15:57.080Z,9.50
2022-08-28T14:18:26.084Z,9.00
2022-08-28T14:20:55.479Z,9.00
2022-08-28T14:23:25.367Z,10.10
2022-08-28T14:25:56.107Z,10.40
2022-08-28T14:28:25.114Z,9.30
2022-08-28T14:30:53.698Z,8.50
2022-08-28T14:33:23.593Z,10.50
2022-08-28T14:35:53.734Z,9.00
2022-08-28T14:38:22.524Z,8.30
2022-08-28T14:40:50.702Z,9.10
2022-08-28T14:43:22.613Z,9.00
2022-08-28T14:45:52.860Z,10.60
2022-08-28T14:48:21.595Z,9.00
2022-08-28T14:50:50.213Z,10.00
2022-08-28T14:53:18.778Z,9.90
2022-08-28T14:55:48.742Z,9.50
2022-08-28T14:58:18.150Z,9.00
2022-08-28T15:00:49.070Z,9.40
2022-08-28T15:03:18.803Z,8.90
2022-08-28T15:05:47.282Z,10.00
2022-08-28T15:08:16.580Z,8.70
2022-08-28T15:10:44.754Z,8.40
2022-08-28T15:13:12.984Z,8.30
2022-08-28T15:15:43.559Z,7.40
2022-08-28T15:18:11.629Z,7.80
2022-08-28T15:20:41.017Z,7.40
2022-08-28T15:23:10.385Z,9.10
2022-08-28T15:25:38.875Z,7.70
2022-08-28T15:28:07.963Z,8.00
2022-08-28T15:30:37.378Z,8.10
2022-08-28T15:33:05.552Z,8.70
2022-08-28T15:35:35.810Z,7.70
2022-08-28T15:38:05.012Z,7.50
2022-08-28T15:40:52.972Z,7.70
2022-08-28T15:43:24.931Z,7.70
2022-08-28T15:45:54.308Z,7.70
2022-08-28T15:48:23.119Z,7.40
2022-08-28T15:50:52.542Z,9.80
2022-08-28T15:53:20.803Z,8.10
2022-08-28T15:55:50.766Z,8.40
2022-08-28T15:58:19.307Z,7.00
2022-08-28T16:00:47.622Z,8.30
2022-08-28T16:03:15.830Z,9.60
2022-08-28T16:05:44.924Z,9.10
2022-08-28T16:08:13.707Z,11.20
2022-08-28T16:10:46.865Z,8.80
2022-08-28T16:13:15.695Z,9.30
2022-08-28T16:15:44.788Z,10.20
2022-08-28T16:18:14.093Z,11.70
2022-08-28T16:20:43.308Z,11.50
2022-08-28T16:23:12.644Z,11.20
2022-08-28T16:25:44.674Z,10.30
2022-08-28T16:28:14.489Z,9.40
2022-08-28T16:30:44.001Z,10.50
2022-08-28T16:33:12.958Z,13.10
2022-08-28T16:35:49.275Z,11.90
2022-08-28T16:40:47.756Z,15.50
2022-08-28T16:43:17.555Z,13.30
2022-08-28T16:45:47.884Z,13.10
2022-08-28T16:48:17.051Z,14.10
2022-08-28T16:50:46.176Z,14.70
2022-08-28T16:53:20.038Z,14.20
2022-08-28T16:55:57.753Z,16.90
2022-08-28T16:58:26.439Z,15.70
2022-08-28T17:00:56.475Z,17.50
2022-08-28T17:03:26.661Z,18.10
2022-08-28T17:05:57.692Z,17.20
2022-08-28T17:08:25.886Z,17.50
2022-08-28T17:10:54.376Z,18.20
2022-08-28T17:13:24.752Z,19.90
2022-08-28T17:15:53.192Z,17.90
2022-08-28T17:18:24.450Z,18.50
2022-08-28T17:21:14.520Z,17.60
2022-08-28T17:23:44.531Z,16.90
2022-08-28T17:26:13.621Z,18.70
2022-08-28T17:28:52.286Z,18.90
2022-08-28T17:31:23.122Z,20.60
2022-08-28T17:33:55.398Z,17.30
2022-08-28T17:36:33.820Z,19.90
2022-08-28T17:39:06.185Z,20.40
2022-08-28T17:41:35.018Z,22.30
2022-08-28T17:44:06.005Z,21.90
2022-08-28T17:46:38.048Z,21.20
2022-08-28T17:49:08.105Z,20.20
2022-08-28T17:51:43.213Z,22.20
2022-08-28T17:54:14.015Z,19.80
2022-08-28T17:56:43.786Z,19.90
2022-08-28T17:59:12.304Z,21.00
2022-08-28T18:01:44.906Z,21.10
2022-08-28T18:04:23.875Z,20.70
2022-08-28T18:06:56.110Z,20.70
2022-08-28T18:09:25.890Z,21.60
2022-08-28T18:11:53.960Z,21.80
2022-08-28T18:14:22.980Z,23.00
2022-08-28T18:16:52.858Z,21.30
2022-08-28T18:19:21.058Z,21.50
2022-08-28T18:21:48.846Z,22.60
2022-08-28T18:24:18.874Z,21.30
2022-08-28T18:26:48.851Z,21.70
2022-08-28T18:29:18.598Z,21.40
2022-08-28T18:31:47.481Z,22.80
2022-08-28T18:34:17.250Z,20.70
2022-08-28T18:36:44.103Z,20.90
2022-08-28T18:39:12.270Z,20.20
2022-08-28T18:41:44.573Z,19.00
2022-08-28T18:44:21.180Z,20.80
2022-08-28T18:46:53.750Z,19.50
2022-08-28T18:49:23.078Z,20.80
2022-08-28T18:51:51.670Z,18.50
2022-08-28T18:54:25.376Z,19.60
2022-08-28T18:57:04.093Z,19.50
2022-08-28T18:59:33.599Z,17.70
2022-08-28T19:02:02.404Z,18.30
2022-08-28T19:04:30.669Z,17.00
2022-08-28T19:06:59.774Z,19.20
2022-08-28T19:09:31.756Z,18.50
2022-08-28T19:12:01.635Z,23.40
2022-08-28T19:14:30.124Z,18.80
2022-08-28T19:16:58.804Z,17.10
2022-08-28T19:19:27.082Z,17.40
2022-08-28T19:21:55.457Z,17.50
2022-08-28T19:24:24.867Z,19.00
2022-08-28T19:26:55.230Z,15.50
2022-08-28T19:29:23.973Z,18.20
2022-08-28T19:31:52.864Z,17.00
2022-08-28T19:34:22.705Z,15.80
2022-08-28T19:36:52.415Z,18.50
2022-08-28T19:39:22.472Z,17.00
2022-08-28T19:41:53.492Z,16.50
2022-08-28T19:44:25.517Z,16.50
2022-08-28T19:46:55.244Z,13.60
2022-08-28T19:49:24.211Z,14.10
2022-08-28T19:51:52.281Z,14.10
2022-08-28T19:54:20.867Z,17.90
2022-08-28T19:56:49.063Z,14.60
2022-08-28T19:59:17.733Z,14.40
2022-08-28T20:01:47.280Z,14.80
2022-08-28T20:04:18.995Z,13.90
2022-08-28T20:06:48.601Z,13.20
2022-08-28T20:09:17.514Z,15.40
2022-08-28T20:11:47.297Z,14.20
2022-08-28T20:14:17.837Z,13.40
2022-08-28T20:16:49.111Z,13.70
2022-08-28T20:19:19.294Z,14.30
2022-08-28T20:21:53.606Z,13.70
2022-08-28T20:24:23.800Z,11.00
2022-08-28T20:26:52.207Z,12.30
2022-08-28T20:29:20.487Z,12.50
2022-08-28T20:31:48.868Z,11.80
2022-08-28T20:34:18.178Z,11.00
2022-08-28T20:36:48.155Z,12.60
2022-08-28T20:39:16.559Z,14.50
2022-08-28T20:41:46.267Z,11.40
2022-08-28T20:44:16.100Z,12.10
2022-08-28T20:46:50.953Z,10.50
2022-08-28T20:49:22.419Z,10.30
2022-08-28T20:51:54.636Z,13.30
2022-08-28T20:54:26.091Z,13.90
2022-08-28T20:56:54.770Z,11.80
2022-08-28T20:59:24.025Z,13.60
2022-08-28T21:01:59.026Z,10.20
2022-08-28T21:04:31.672Z,12.30
2022-08-28T21:07:01.005Z,12.80
2022-08-28T21:09:53.721Z,11.80
2022-08-28T21:12:19.445Z,9.40
2022-08-28T21:14:51.462Z,11.50
2022-08-28T21:17:28.886Z,11.60
2022-08-28T21:20:00.429Z,10.40
2022-08-28T21:22:30.252Z,11.00
2022-08-28T21:24:58.658Z,12.30
2022-08-28T21:27:26.982Z,11.30
2022-08-28T21:29:56.115Z,12.70
2022-08-28T21:32:24.498Z,12.10
2022-08-28T21:34:53.237Z,11.20
2022-08-28T21:37:22.953Z,11.90
2022-08-28T21:39:52.397Z,10.50
2022-08-28T21:42:22.103Z,12.00
2022-08-28T21:44:51.451Z,12.60
2022-08-28T21:47:23.885Z,11.00
2022-08-28T21:49:54.110Z,12.90
2022-08-28T21:52:23.503Z,10.00
2022-08-28T21:54:56.200Z,12.40
2022-08-28T21:57:26.242Z,14.40
2022-08-28T21:59:54.601Z,12.10
2022-08-28T22:02:22.910Z,10.00
2022-08-28T22:04:51.135Z,12.80
2022-08-28T22:07:19.491Z,11.50
2022-08-28T22:09:47.411Z,10.70
2022-08-28T22:12:16.509Z,12.30
2022-08-28T22:14:45.015Z,11.20
2022-08-28T22:17:15.200Z,14.00
2022-08-28T22:19:46.980Z,11.10
2022-08-28T22:22:34.291Z,13.30
2022-08-28T22:25:03.077Z,13.20
2022-08-28T22:27:34.892Z,11.10
2022-08-28T22:30:04.238Z,11.30
2022-08-28T22:32:32.069Z,13.30
2022-08-28T22:35:00.461Z,11.10
2022-08-28T22:37:29.436Z,13.60
2022-08-28T22:39:58.350Z,12.50
2022-08-28T22:42:28.448Z,12.80
2022-08-28T22:44:56.421Z,13.80
2022-08-28T22:47:24.799Z,14.40
2022-08-28T22:49:55.031Z,12.50
2022-08-28T22:52:23.008Z,11.90
2022-08-28T22:54:53.194Z,13.60
2022-08-28T22:57:22.069Z,11.90
2022-08-28T22:59:50.576Z,13.20
2022-08-28T23:02:21.049Z,13.10
2022-08-28T23:04:51.987Z,12.50
2022-08-28T23:07:24.156Z,12.90
2022-08-28T23:09:53.597Z,10.70
2022-08-28T23:12:21.898Z,11.80
2022-08-28T23:14:50.063Z,10.70
2022-08-28T23:17:18.803Z,12.30
2022-08-28T23:19:48.586Z,13.00
2022-08-28T23:22:18.190Z,10.90
2022-08-28T23:24:47.033Z,10.90
2022-08-28T23:27:35.365Z,11.80
2022-08-28T23:30:04.915Z,13.00
2022-08-28T23:32:34.127Z,10.90
2022-08-28T23:35:07.154Z,11.60
2022-08-28T23:37:37.008Z,10.90
2022-08-28T23:40:12.992Z,15.90
2022-08-28T23:42:41.728Z,9.70
2022-08-28T23:45:11.256Z,11.10
2022-08-28T23:47:40.435Z,11.80
2022-08-28T23:50:11.553Z,13.60
2022-08-28T23:52:39.670Z,11.60
2022-08-28T23:55:08.224Z,10.50
2022-08-28T23:57:36.448Z,12.10
